Cse Prosperity Expr. — 3EES5 — position and weather

sailwx.info

Track history (hours):
 
Tides and Currents Weather Stations Pressure Air Temp Water Temp Dewpoint Dewpoint Depression Visibility Wind Speed Wind Dir Waves Ship Positions

Cse Prosperity Expr.

Last reported at 2015-Apr-18 16:32 UTC. Time now 2015-Apr-18 16:40 UTC.
Position N 34°14' E 135°07'.

Length 168 m; draft 5.6 m.

Type: Cargo ship. MMSI: 371801000.

Date/timePositionNaut miles runAvg speedWind from/ knotsBaromVisibWave heightAir tempDewpointWater temp
2015-Apr-18 16:32N 34°14' E 135°07'0 0.0
2015-Apr-18 15:32N 34°14' E 135°07'0 0.0
2015-Apr-18 14:32N 34°14' E 135°07'0 0.0
2015-Apr-18 13:32N 34°14' E 135°07'0 0.0
2015-Apr-18 12:32N 34°14' E 135°07'0 0.0
2015-Apr-18 11:29N 34°14' E 135°07'0 0.0
2015-Apr-18 10:32N 34°14' E 135°07'0 0.0
2015-Apr-18 09:32N 34°14' E 135°07'0 0.0
2015-Apr-18 08:32N 34°14' E 135°07'0 0.0
2015-Apr-18 07:32N 34°14' E 135°07'0 0.0
2015-Apr-18 06:26N 34°14' E 135°07'0 0.0
2015-Apr-18 05:32N 34°14' E 135°07'0 0.0
2015-Apr-18 04:32N 34°14' E 135°07'2 2.3
2015-Apr-18 03:33N 34°13' E 135°05'8 7.8
2015-Apr-18 02:33N 34°06' E 135°01'1412.2
2015-Apr-18 01:25N 33°53' E 134°55'1012.1
2015-Apr-18 00:33N 33°44' E 134°49'1212.0
2015-Apr-17 23:32N 33°35' E 134°40'  
2015-Apr-15 03:09N 22°48' E 120°05'813.3
2015-Apr-15 02:33N 22°42' E 120°09'10 9.9
2015-Apr-15 01:33N 22°35' E 120°18'0 0.2
2015-Apr-15 00:30N 22°35' E 120°18'0 0.0
2015-Apr-14 23:18N 22°35' E 120°18'0 0.0
2015-Apr-14 22:30N 22°35' E 120°18'0 0.0
2015-Apr-14 21:30N 22°35' E 120°18'0 0.0
2015-Apr-14 20:30N 22°35' E 120°18'0 0.0
2015-Apr-14 19:24N 22°35' E 120°18'0 0.0
2015-Apr-14 18:30N 22°35' E 120°18'0 0.0
2015-Apr-14 17:30N 22°35' E 120°18'0 0.0
2015-Apr-14 16:30N 22°35' E 120°18'0 0.0
2015-Apr-14 15:24N 22°35' E 120°18'0 0.0
2015-Apr-14 14:30N 22°35' E 120°18'0 0.0
2015-Apr-14 13:30N 22°35' E 120°18'0 0.0
2015-Apr-14 12:30N 22°35' E 120°18'0 0.0
2015-Apr-14 11:24N 22°35' E 120°18'0 0.0
2015-Apr-14 10:30N 22°35' E 120°18'0 0.0
2015-Apr-14 09:24N 22°35' E 120°18'0 0.0
2015-Apr-14 08:30N 22°35' E 120°18'0 0.0
2015-Apr-14 07:30N 22°35' E 120°18'0 0.0
2015-Apr-14 06:30N 22°35' E 120°18'0 0.0
2015-Apr-14 05:30N 22°35' E 120°18'0 0.0
2015-Apr-14 04:30N 22°35' E 120°18'0 0.0
2015-Apr-14 03:24N 22°35' E 120°18'0 0.0
2015-Apr-14 02:24N 22°35' E 120°18'0 0.0
2015-Apr-14 01:30N 22°35' E 120°18'0 0.3
2015-Apr-14 00:33N 22°35' E 120°18'7 7.0
2015-Apr-13 23:33N 22°39' E 120°11'9 9.1
2015-Apr-13 22:33N 22°47' E 120°06'  
2015-Apr-10 00:33N 34°01' E 134°58'1312.9
2015-Apr-09 23:33N 34°12' E 135°04'3 3.1
2015-Apr-09 22:32N 34°14' E 135°07'0 0.0
2015-Apr-09 21:32N 34°14' E 135°07'0 0.0
2015-Apr-09 20:32N 34°14' E 135°07'0 0.0
2015-Apr-09 19:32N 34°14' E 135°07'0 0.0
2015-Apr-09 18:32N 34°14' E 135°07'0 0.0
2015-Apr-09 17:32N 34°14' E 135°07'0 0.0
2015-Apr-09 16:29N 34°14' E 135°07'0 0.0
2015-Apr-09 15:32N 34°14' E 135°07'0 0.0
2015-Apr-09 14:32N 34°14' E 135°07'0 0.0
2015-Apr-09 13:29N 34°14' E 135°07'0 0.0
2015-Apr-09 12:32N 34°14' E 135°07'0 0.0
2015-Apr-09 11:32N 34°14' E 135°07'0 0.0
2015-Apr-09 10:29N 34°14' E 135°07'0 0.0
2015-Apr-09 09:32N 34°14' E 135°07'0 0.0
2015-Apr-09 08:29N 34°14' E 135°07'0 0.0
2015-Apr-09 07:29N 34°14' E 135°07'0 0.0
2015-Apr-09 06:29N 34°14' E 135°07'0 0.0
2015-Apr-09 05:29N 34°14' E 135°07'0 0.0
2015-Apr-09 04:29N 34°14' E 135°07'0 0.0
2015-Apr-09 03:29N 34°14' E 135°07'0 0.0
2015-Apr-09 02:32N 34°14' E 135°07'0 0.0
2015-Apr-09 01:32N 34°14' E 135°07'0 0.0
2015-Apr-09 00:29N 34°14' E 135°07'0 0.0
2015-Apr-08 23:29N 34°14' E 135°07'0 0.0
2015-Apr-08 22:29N 34°14' E 135°07'0 0.0
2015-Apr-08 21:29N 34°14' E 135°07'0 0.0
2015-Apr-08 20:32N 34°14' E 135°07'0 0.0
2015-Apr-08 19:23N 34°14' E 135°07'0 0.0
2015-Apr-08 18:29N 34°14' E 135°07'0 0.0
2015-Apr-08 17:29N 34°14' E 135°07'  
Track history (hours):
 
Tides and Currents Weather Stations Pressure Air Temp Water Temp Dewpoint Dewpoint Depression Visibility Wind Speed Wind Dir Waves Ship Positions

Cse Prosperity Expr.

Last reported at 2015-Apr-18 16:32 UTC. Time now 2015-Apr-18 16:40 UTC.
Position N 34°14' E 135°07'.

Length 168 m; draft 5.6 m.

Type: Cargo ship. MMSI: 371801000.

Date/timePositionNaut miles runAvg speedWind from/ knotsBaromVisibWave heightAir tempDewpointWater temp
2015-Apr-18 16:32N 34°14' E 135°07'0 0.0
2015-Apr-18 15:32N 34°14' E 135°07'0 0.0
2015-Apr-18 14:32N 34°14' E 135°07'0 0.0
2015-Apr-18 13:32N 34°14' E 135°07'0 0.0
2015-Apr-18 12:32N 34°14' E 135°07'0 0.0
2015-Apr-18 11:29N 34°14' E 135°07'0 0.0
2015-Apr-18 10:32N 34°14' E 135°07'0 0.0
2015-Apr-18 09:32N 34°14' E 135°07'0 0.0
2015-Apr-18 08:32N 34°14' E 135°07'0 0.0
2015-Apr-18 07:32N 34°14' E 135°07'0 0.0
2015-Apr-18 06:26N 34°14' E 135°07'0 0.0
2015-Apr-18 05:32N 34°14' E 135°07'0 0.0
2015-Apr-18 04:32N 34°14' E 135°07'2 2.3
2015-Apr-18 03:33N 34°13' E 135°05'8 7.8
2015-Apr-18 02:33N 34°06' E 135°01'1412.2
2015-Apr-18 01:25N 33°53' E 134°55'1012.1
2015-Apr-18 00:33N 33°44' E 134°49'1212.0
2015-Apr-17 23:32N 33°35' E 134°40'  
2015-Apr-15 03:09N 22°48' E 120°05'813.3
2015-Apr-15 02:33N 22°42' E 120°09'10 9.9
2015-Apr-15 01:33N 22°35' E 120°18'0 0.2
2015-Apr-15 00:30N 22°35' E 120°18'0 0.0
2015-Apr-14 23:18N 22°35' E 120°18'0 0.0
2015-Apr-14 22:30N 22°35' E 120°18'0 0.0
2015-Apr-14 21:30N 22°35' E 120°18'0 0.0
2015-Apr-14 20:30N 22°35' E 120°18'0 0.0
2015-Apr-14 19:24N 22°35' E 120°18'0 0.0
2015-Apr-14 18:30N 22°35' E 120°18'0 0.0
2015-Apr-14 17:30N 22°35' E 120°18'0 0.0
2015-Apr-14 16:30N 22°35' E 120°18'0 0.0
2015-Apr-14 15:24N 22°35' E 120°18'0 0.0
2015-Apr-14 14:30N 22°35' E 120°18'0 0.0
2015-Apr-14 13:30N 22°35' E 120°18'0 0.0
2015-Apr-14 12:30N 22°35' E 120°18'0 0.0
2015-Apr-14 11:24N 22°35' E 120°18'0 0.0
2015-Apr-14 10:30N 22°35' E 120°18'0 0.0
2015-Apr-14 09:24N 22°35' E 120°18'0 0.0
2015-Apr-14 08:30N 22°35' E 120°18'0 0.0
2015-Apr-14 07:30N 22°35' E 120°18'0 0.0
2015-Apr-14 06:30N 22°35' E 120°18'0 0.0
2015-Apr-14 05:30N 22°35' E 120°18'0 0.0
2015-Apr-14 04:30N 22°35' E 120°18'0 0.0
2015-Apr-14 03:24N 22°35' E 120°18'0 0.0
2015-Apr-14 02:24N 22°35' E 120°18'0 0.0
2015-Apr-14 01:30N 22°35' E 120°18'0 0.3
2015-Apr-14 00:33N 22°35' E 120°18'7 7.0
2015-Apr-13 23:33N 22°39' E 120°11'9 9.1
2015-Apr-13 22:33N 22°47' E 120°06'  
2015-Apr-10 00:33N 34°01' E 134°58'1312.9
2015-Apr-09 23:33N 34°12' E 135°04'3 3.1
2015-Apr-09 22:32N 34°14' E 135°07'0 0.0
2015-Apr-09 21:32N 34°14' E 135°07'0 0.0
2015-Apr-09 20:32N 34°14' E 135°07'0 0.0
2015-Apr-09 19:32N 34°14' E 135°07'0 0.0
2015-Apr-09 18:32N 34°14' E 135°07'0 0.0
2015-Apr-09 17:32N 34°14' E 135°07'0 0.0
2015-Apr-09 16:29N 34°14' E 135°07'0 0.0
2015-Apr-09 15:32N 34°14' E 135°07'0 0.0
2015-Apr-09 14:32N 34°14' E 135°07'0 0.0
2015-Apr-09 13:29N 34°14' E 135°07'0 0.0
2015-Apr-09 12:32N 34°14' E 135°07'0 0.0
2015-Apr-09 11:32N 34°14' E 135°07'0 0.0
2015-Apr-09 10:29N 34°14' E 135°07'0 0.0
2015-Apr-09 09:32N 34°14' E 135°07'0 0.0
2015-Apr-09 08:29N 34°14' E 135°07'0 0.0
2015-Apr-09 07:29N 34°14' E 135°07'0 0.0
2015-Apr-09 06:29N 34°14' E 135°07'0 0.0
2015-Apr-09 05:29N 34°14' E 135°07'0 0.0
2015-Apr-09 04:29N 34°14' E 135°07'0 0.0
2015-Apr-09 03:29N 34°14' E 135°07'0 0.0
2015-Apr-09 02:32N 34°14' E 135°07'0 0.0
2015-Apr-09 01:32N 34°14' E 135°07'0 0.0
2015-Apr-09 00:29N 34°14' E 135°07'0 0.0
2015-Apr-08 23:29N 34°14' E 135°07'0 0.0
2015-Apr-08 22:29N 34°14' E 135°07'0 0.0
2015-Apr-08 21:29N 34°14' E 135°07'0 0.0
2015-Apr-08 20:32N 34°14' E 135°07'0 0.0
2015-Apr-08 19:23N 34°14' E 135°07'0 0.0
2015-Apr-08 18:29N 34°14' E 135°07'0 0.0
2015-Apr-08 17:29N 34°14' E 135°07'  

Dump ship's entire track history